createdAt,value
2023-02-08T00:00:58.361Z,0.00
2023-02-08T00:01:58.297Z,0.00
2023-02-08T00:02:58.307Z,0.00
2023-02-08T00:03:58.209Z,0.00
2023-02-08T00:04:58.122Z,0.00
2023-02-08T00:05:58.078Z,0.00
2023-02-08T00:06:58.020Z,0.00
2023-02-08T00:07:57.938Z,0.00
2023-02-08T00:08:57.891Z,0.00
2023-02-08T00:09:57.820Z,0.00
2023-02-08T00:10:57.782Z,0.00
2023-02-08T00:11:57.695Z,0.00
2023-02-08T00:12:57.646Z,0.00
2023-02-08T00:13:57.601Z,0.00
2023-02-08T00:14:57.489Z,0.00
2023-02-08T00:15:57.471Z,0.00
2023-02-08T00:16:57.391Z,0.00
2023-02-08T00:17:57.321Z,0.00
2023-02-08T00:18:57.261Z,0.00
2023-02-08T00:19:57.219Z,0.00
2023-02-08T00:20:57.152Z,0.00
2023-02-08T00:21:57.103Z,0.00
2023-02-08T00:22:57.012Z,0.00
2023-02-08T00:23:56.952Z,0.00
2023-02-08T00:24:56.929Z,0.00
2023-02-08T00:25:56.844Z,0.00
2023-02-08T00:26:56.751Z,0.00
2023-02-08T00:27:56.728Z,0.00
2023-02-08T00:28:56.671Z,0.00
2023-02-08T00:29:56.592Z,0.00
2023-02-08T00:30:56.644Z,0.00
2023-02-08T00:31:56.547Z,0.00
2023-02-08T00:32:56.402Z,0.00
2023-02-08T00:33:56.373Z,0.00
2023-02-08T00:34:56.273Z,0.00
2023-02-08T00:35:56.223Z,0.00
2023-02-08T00:36:56.169Z,0.00
2023-02-08T00:37:56.140Z,0.00
2023-02-08T00:38:56.101Z,0.00
2023-02-08T00:39:55.971Z,0.00
2023-02-08T00:40:55.918Z,0.00
2023-02-08T00:41:55.841Z,0.00
2023-02-08T00:42:55.788Z,0.00
2023-02-08T00:43:55.729Z,0.00
2023-02-08T00:44:55.680Z,0.00
2023-02-08T00:45:55.605Z,0.00
2023-02-08T00:46:55.621Z,0.00
2023-02-08T00:47:55.473Z,0.00
2023-02-08T00:48:55.403Z,0.00
2023-02-08T00:49:55.384Z,0.00
2023-02-08T00:50:55.300Z,0.00
2023-02-08T00:51:55.227Z,0.00
2023-02-08T00:52:55.223Z,0.00
2023-02-08T00:53:55.138Z,0.00
2023-02-08T00:54:55.040Z,0.00
2023-02-08T00:55:55.011Z,0.00
2023-02-08T00:56:54.958Z,0.00
2023-02-08T00:57:54.849Z,0.00
2023-02-08T00:58:54.832Z,0.00
2023-02-08T00:59:54.757Z,0.00
2023-02-08T01:00:54.912Z,0.00
2023-02-08T01:01:54.670Z,0.00
2023-02-08T01:02:54.563Z,0.00
2023-02-08T01:03:54.500Z,0.00
2023-02-08T01:04:54.468Z,0.00
2023-02-08T01:05:54.375Z,0.00
2023-02-08T01:06:54.328Z,0.00
2023-02-08T01:07:54.261Z,0.00
2023-02-08T01:08:54.186Z,0.00
2023-02-08T01:09:54.143Z,0.00
2023-02-08T01:10:54.071Z,0.00
2023-02-08T01:11:54.000Z,0.00
2023-02-08T01:12:55.720Z,0.00
2023-02-08T01:13:53.907Z,0.00
2023-02-08T01:14:53.818Z,0.00
2023-02-08T01:15:53.786Z,0.00
2023-02-08T01:16:53.739Z,0.00
2023-02-08T01:17:53.635Z,0.00
2023-02-08T01:18:53.736Z,0.00
2023-02-08T01:19:53.534Z,0.00
2023-02-08T01:20:53.460Z,0.00
2023-02-08T01:21:53.442Z,0.00
2023-02-08T01:22:53.308Z,0.00
2023-02-08T01:23:53.255Z,0.00
2023-02-08T01:24:53.242Z,0.00
2023-02-08T01:25:53.144Z,0.00
2023-02-08T01:26:53.087Z,0.00
2023-02-08T01:27:53.066Z,0.00
2023-02-08T01:28:52.956Z,0.00
2023-02-08T01:29:52.941Z,0.00
2023-02-08T01:30:52.908Z,0.00
2023-02-08T01:31:52.778Z,0.00
2023-02-08T01:32:52.734Z,0.00
2023-02-08T01:33:52.643Z,0.00
2023-02-08T01:34:52.639Z,0.00
2023-02-08T01:35:52.545Z,0.00
2023-02-08T01:36:52.507Z,0.00
2023-02-08T01:37:52.396Z,0.00
2023-02-08T01:38:52.335Z,0.00
2023-02-08T01:39:52.322Z,0.00
2023-02-08T01:40:52.240Z,0.00
2023-02-08T01:41:52.162Z,0.00
2023-02-08T01:42:52.103Z,0.00
2023-02-08T01:43:52.036Z,0.00
2023-02-08T01:44:51.982Z,0.00
2023-02-08T01:45:51.968Z,0.00
2023-02-08T01:46:51.860Z,0.00
2023-02-08T01:47:51.790Z,0.00
2023-02-08T01:48:51.734Z,0.00
2023-02-08T01:49:51.668Z,0.00
2023-02-08T01:50:51.666Z,0.00
2023-02-08T01:51:51.551Z,0.00
2023-02-08T01:52:51.469Z,0.00
2023-02-08T01:53:51.421Z,0.00
2023-02-08T01:54:51.356Z,0.00
2023-02-08T01:55:51.323Z,0.00
2023-02-08T01:56:51.274Z,0.00
2023-02-08T01:57:51.183Z,0.00
2023-02-08T01:58:51.126Z,0.00
2023-02-08T01:59:51.061Z,0.00
2023-02-08T02:00:51.033Z,0.00
2023-02-08T02:01:50.969Z,0.00
2023-02-08T02:02:50.881Z,0.00
2023-02-08T02:03:50.802Z,0.00
2023-02-08T02:04:50.727Z,0.00
2023-02-08T02:05:50.696Z,0.00
2023-02-08T02:06:50.626Z,0.00
2023-02-08T02:07:50.554Z,0.00
2023-02-08T02:08:50.519Z,0.00
2023-02-08T02:09:50.429Z,0.00
2023-02-08T02:10:50.429Z,0.00
2023-02-08T02:11:50.366Z,0.00
2023-02-08T02:12:50.268Z,0.00
2023-02-08T02:13:50.226Z,0.00
2023-02-08T02:14:50.189Z,0.00
2023-02-08T02:15:50.085Z,0.00
2023-02-08T02:16:50.028Z,0.00
2023-02-08T02:17:49.974Z,0.00
2023-02-08T02:18:49.898Z,0.00
2023-02-08T02:19:49.853Z,0.00
2023-02-08T02:20:49.779Z,0.00
2023-02-08T02:21:49.749Z,0.00
2023-02-08T02:22:49.676Z,0.00
2023-02-08T02:23:49.582Z,0.00
2023-02-08T02:24:49.530Z,0.00
2023-02-08T02:25:49.472Z,0.00
2023-02-08T02:26:49.396Z,0.00
2023-02-08T02:27:49.358Z,0.00
2023-02-08T02:28:49.307Z,0.00
2023-02-08T02:29:49.218Z,0.00
2023-02-08T02:30:49.214Z,0.00
2023-02-08T02:31:49.173Z,0.00
2023-02-08T02:32:49.034Z,0.00
2023-02-08T02:33:48.980Z,0.00
2023-02-08T02:34:48.881Z,0.00
2023-02-08T02:35:48.835Z,0.00
2023-02-08T02:36:48.788Z,0.00
2023-02-08T02:37:48.752Z,0.00
2023-02-08T02:38:48.773Z,0.00
2023-02-08T02:39:48.680Z,0.00
2023-02-08T02:40:48.544Z,0.00
2023-02-08T02:41:48.474Z,0.00
2023-02-08T02:42:48.405Z,0.00
2023-02-08T02:43:48.350Z,0.00
2023-02-08T02:44:48.316Z,0.00
2023-02-08T02:45:48.247Z,0.00
2023-02-08T02:46:48.206Z,0.00
2023-02-08T02:47:48.102Z,0.00
2023-02-08T02:48:48.034Z,0.00
2023-02-08T02:49:48.020Z,0.00
2023-02-08T02:50:47.971Z,0.00
2023-02-08T02:51:47.850Z,0.00
2023-02-08T02:52:47.889Z,0.00
2023-02-08T02:53:47.771Z,0.00
2023-02-08T02:54:47.752Z,0.00
2023-02-08T02:55:47.657Z,0.00
2023-02-08T02:56:47.538Z,0.00
2023-02-08T02:57:47.529Z,0.00
2023-02-08T02:58:47.422Z,0.00
2023-02-08T02:59:47.369Z,0.00
2023-02-08T03:00:47.335Z,0.00
2023-02-08T03:01:47.245Z,0.00
2023-02-08T03:02:47.186Z,0.00
2023-02-08T03:03:47.109Z,0.00
2023-02-08T03:04:47.069Z,0.00
2023-02-08T03:05:47.004Z,0.00
2023-02-08T03:06:46.947Z,0.00
2023-02-08T03:07:46.863Z,0.00
2023-02-08T03:08:46.867Z,0.00
2023-02-08T03:09:46.781Z,0.00
2023-02-08T03:10:46.708Z,0.00
2023-02-08T03:11:46.627Z,0.00
2023-02-08T03:12:46.565Z,0.00
2023-02-08T03:13:46.557Z,0.00
2023-02-08T03:14:46.430Z,0.00
2023-02-08T03:15:46.428Z,0.00
2023-02-08T03:16:46.446Z,0.00
2023-02-08T03:17:46.279Z,0.00
2023-02-08T03:18:46.215Z,0.00
2023-02-08T03:19:46.142Z,0.00
2023-02-08T03:20:46.066Z,0.00
2023-02-08T03:21:46.002Z,0.00
2023-02-08T03:22:45.944Z,0.00
2023-02-08T03:23:45.985Z,0.00
2023-02-08T03:24:45.809Z,0.00
2023-02-08T03:25:45.793Z,0.00
2023-02-08T03:26:45.686Z,0.00
2023-02-08T03:27:45.628Z,0.00
2023-02-08T03:28:45.584Z,0.00
2023-02-08T03:29:45.541Z,0.00
2023-02-08T03:30:45.552Z,0.00
2023-02-08T03:31:45.466Z,0.00
2023-02-08T03:32:45.339Z,0.00
2023-02-08T03:33:45.262Z,0.00
2023-02-08T03:34:45.223Z,0.00
2023-02-08T03:35:45.151Z,0.00
2023-02-08T03:36:45.068Z,0.00
2023-02-08T03:37:45.020Z,0.00
2023-02-08T03:38:44.953Z,0.00
2023-02-08T03:39:44.940Z,0.00
2023-02-08T03:40:44.908Z,0.00
2023-02-08T03:41:44.782Z,0.00
2023-02-08T03:42:44.696Z,0.00
2023-02-08T03:43:44.632Z,0.00
2023-02-08T03:44:44.604Z,0.00
2023-02-08T03:45:44.541Z,0.00
2023-02-08T03:46:44.448Z,0.00
2023-02-08T03:47:44.402Z,0.00
2023-02-08T03:48:44.400Z,0.00
2023-02-08T03:49:44.271Z,0.00
2023-02-08T03:50:44.220Z,0.00
2023-02-08T03:51:44.184Z,0.00
2023-02-08T03:52:44.087Z,0.00
2023-02-08T03:53:44.059Z,0.00
2023-02-08T03:54:44.007Z,0.00
2023-02-08T03:55:43.926Z,0.00
2023-02-08T03:56:43.835Z,0.00
2023-02-08T03:57:43.775Z,0.00
2023-02-08T03:58:43.753Z,0.00
2023-02-08T03:59:43.653Z,0.00
2023-02-08T04:00:43.616Z,0.00
2023-02-08T04:01:43.559Z,0.00
2023-02-08T04:02:43.481Z,0.00
2023-02-08T04:03:43.430Z,0.00
2023-02-08T04:04:43.311Z,0.00
2023-02-08T04:05:43.294Z,0.00
2023-02-08T04:06:43.232Z,0.00
2023-02-08T04:07:43.150Z,0.00
2023-02-08T04:08:43.079Z,0.00
2023-02-08T04:09:43.617Z,0.00
2023-02-08T04:10:43.250Z,0.00
2023-02-08T04:11:42.946Z,0.00
2023-02-08T04:12:42.828Z,0.00
2023-02-08T04:13:42.813Z,0.00
2023-02-08T04:14:42.749Z,0.00
2023-02-08T04:15:42.736Z,0.00
2023-02-08T04:16:42.585Z,0.00
2023-02-08T04:17:42.538Z,0.00
2023-02-08T04:18:42.487Z,0.00
2023-02-08T04:19:42.420Z,0.00
2023-02-08T04:20:42.542Z,0.00
2023-02-08T04:21:42.268Z,0.00
2023-02-08T04:22:42.222Z,0.00
2023-02-08T04:23:42.168Z,0.00
2023-02-08T04:24:42.113Z,0.00
2023-02-08T04:25:42.018Z,0.00
2023-02-08T04:26:41.968Z,0.00
2023-02-08T04:27:41.949Z,0.00
2023-02-08T04:28:41.839Z,0.00
2023-02-08T04:29:41.826Z,0.00
2023-02-08T04:30:42.118Z,0.00
2023-02-08T04:31:41.792Z,0.00
2023-02-08T04:32:41.653Z,0.00
2023-02-08T04:33:41.550Z,0.00
2023-02-08T04:34:41.465Z,0.00
2023-02-08T04:35:41.432Z,0.00
2023-02-08T04:36:41.381Z,0.00
2023-02-08T04:37:41.448Z,0.00
2023-02-08T04:38:41.246Z,0.00
2023-02-08T04:39:41.194Z,0.00
2023-02-08T04:40:41.367Z,0.00
2023-02-08T04:41:41.053Z,0.00
2023-02-08T04:42:40.979Z,0.00
2023-02-08T04:43:40.931Z,0.00
2023-02-08T04:44:40.862Z,0.00
2023-02-08T04:45:40.814Z,0.00
2023-02-08T04:46:40.815Z,0.00
2023-02-08T04:47:40.693Z,0.00
2023-02-08T04:48:40.633Z,0.00
2023-02-08T04:49:40.556Z,0.00
2023-02-08T04:50:40.811Z,0.00
2023-02-08T04:51:40.421Z,0.00
2023-02-08T04:52:40.374Z,0.00
2023-02-08T04:53:40.337Z,0.00
2023-02-08T04:54:40.978Z,0.00
2023-02-08T04:55:40.192Z,0.00
2023-02-08T04:56:40.106Z,0.00
2023-02-08T04:57:40.070Z,0.00
2023-02-08T04:58:40.016Z,0.00
2023-02-08T04:59:39.941Z,0.00
2023-02-08T05:00:40.315Z,0.00
2023-02-08T05:01:39.882Z,0.00
2023-02-08T05:02:39.767Z,0.00
2023-02-08T05:03:39.724Z,0.00
2023-02-08T05:04:39.609Z,0.00
2023-02-08T05:05:39.548Z,0.00
2023-02-08T05:06:39.508Z,0.00
2023-02-08T05:07:39.410Z,0.00
2023-02-08T05:08:39.357Z,0.00
2023-02-08T05:09:39.316Z,0.00
2023-02-08T05:10:39.604Z,0.00
2023-02-08T05:11:39.159Z,0.00
2023-02-08T05:12:39.103Z,0.00
2023-02-08T05:13:39.049Z,0.00
2023-02-08T05:14:39.014Z,0.00
2023-02-08T05:15:38.946Z,0.00
2023-02-08T05:16:38.882Z,0.00
2023-02-08T05:17:38.807Z,0.00
2023-02-08T05:18:38.721Z,0.00
2023-02-08T05:19:38.706Z,0.00
2023-02-08T05:20:38.829Z,0.00
2023-02-08T05:21:38.552Z,0.00
2023-02-08T05:22:38.485Z,0.00
2023-02-08T05:23:38.442Z,0.00
2023-02-08T05:24:38.377Z,0.00
2023-02-08T05:25:38.317Z,0.00
2023-02-08T05:26:38.229Z,0.00
2023-02-08T05:27:38.157Z,0.00
2023-02-08T05:28:38.112Z,0.00
2023-02-08T05:29:38.073Z,0.00
2023-02-08T05:30:38.127Z,0.00
2023-02-08T05:31:38.001Z,0.00
2023-02-08T05:32:37.851Z,0.00
2023-02-08T05:33:37.809Z,0.00
2023-02-08T05:34:37.757Z,0.00
2023-02-08T05:35:37.648Z,0.00
2023-02-08T05:36:37.612Z,0.00
2023-02-08T05:37:37.534Z,0.00
2023-02-08T05:38:37.485Z,0.00
2023-02-08T05:39:37.453Z,0.00
2023-02-08T05:40:37.348Z,0.00
2023-02-08T05:41:37.274Z,0.00
2023-02-08T05:42:37.225Z,0.00
2023-02-08T05:43:37.229Z,0.00
2023-02-08T05:44:37.335Z,0.00
2023-02-08T05:45:37.066Z,0.00
2023-02-08T05:46:38.354Z,0.00
2023-02-08T05:47:37.156Z,0.00
2023-02-08T05:48:36.966Z,0.00
2023-02-08T05:49:37.031Z,0.00
2023-02-08T05:50:36.719Z,0.00
2023-02-08T05:51:36.690Z,0.00
2023-02-08T05:52:36.614Z,0.00
2023-02-08T05:53:36.563Z,0.00
2023-02-08T05:54:36.490Z,0.00
2023-02-08T05:55:36.485Z,0.00
2023-02-08T05:56:36.378Z,0.00
2023-02-08T05:57:36.313Z,0.00
2023-02-08T05:58:36.262Z,0.00
2023-02-08T05:59:36.256Z,0.00
2023-02-08T06:00:36.133Z,0.00
2023-02-08T06:01:36.084Z,0.00
2023-02-08T06:02:36.011Z,0.00
2023-02-08T06:03:35.984Z,0.00
2023-02-08T06:04:38.681Z,0.00
2023-02-08T06:05:35.834Z,0.00
2023-02-08T06:06:35.760Z,0.00
2023-02-08T06:07:35.707Z,4.00
2023-02-08T06:08:35.637Z,0.00
2023-02-08T06:09:35.802Z,0.00
2023-02-08T06:10:35.511Z,4.00
2023-02-08T06:11:35.467Z,4.00
2023-02-08T06:12:35.365Z,4.00
2023-02-08T06:13:35.381Z,4.00
2023-02-08T06:14:35.256Z,4.00
2023-02-08T06:15:35.210Z,4.00
2023-02-08T06:16:35.202Z,4.00
2023-02-08T06:17:35.121Z,12.00
2023-02-08T06:18:35.207Z,8.00
2023-02-08T06:19:35.052Z,12.00
2023-02-08T06:20:34.954Z,16.00
2023-02-08T06:21:34.805Z,16.00
2023-02-08T06:22:34.784Z,24.00
2023-02-08T06:23:34.712Z,28.00
2023-02-08T06:24:34.715Z,32.00
2023-02-08T06:25:34.564Z,36.00
2023-02-08T06:26:34.563Z,40.00
2023-02-08T06:27:34.489Z,48.00
2023-02-08T06:28:34.403Z,56.00
2023-02-08T06:29:34.354Z,64.00
2023-02-08T06:30:34.289Z,72.00
2023-02-08T06:31:34.246Z,80.00
2023-02-08T06:32:34.197Z,92.00
2023-02-08T06:33:34.102Z,104.00
2023-02-08T06:34:34.009Z,112.00
2023-02-08T06:35:33.971Z,124.00
2023-02-08T06:36:33.895Z,136.00
2023-02-08T06:37:33.914Z,152.00
2023-02-08T06:38:33.776Z,168.00
2023-02-08T06:39:33.714Z,184.00
2023-02-08T06:40:33.663Z,200.00
2023-02-08T06:41:33.610Z,216.00
2023-02-08T06:42:33.534Z,240.00
2023-02-08T06:43:33.456Z,260.00
2023-02-08T06:44:33.386Z,280.00
2023-02-08T06:45:33.390Z,300.00
2023-02-08T06:46:33.301Z,324.00
2023-02-08T06:47:33.189Z,348.00
2023-02-08T06:48:33.151Z,372.00
2023-02-08T06:49:33.072Z,396.00
2023-02-08T06:50:33.033Z,420.00
2023-02-08T06:51:32.979Z,448.00
2023-02-08T06:52:32.935Z,476.00
2023-02-08T06:53:32.843Z,504.00
2023-02-08T06:54:32.822Z,532.00
2023-02-08T06:55:32.704Z,564.00
2023-02-08T06:56:32.676Z,592.00
2023-02-08T06:57:32.622Z,624.00
2023-02-08T06:58:32.556Z,652.00
2023-02-08T06:59:32.465Z,688.00
2023-02-08T07:00:32.399Z,720.00
2023-02-08T07:01:32.419Z,752.00
2023-02-08T07:02:32.341Z,784.00
2023-02-08T07:03:32.251Z,820.00
2023-02-08T07:04:32.142Z,852.00
2023-02-08T07:05:32.080Z,884.00
2023-02-08T07:06:32.018Z,920.00
2023-02-08T07:07:32.003Z,952.00
2023-02-08T07:08:31.910Z,988.00
2023-02-08T07:09:31.835Z,1024.00
2023-02-08T07:10:31.767Z,1064.00
2023-02-08T07:11:31.713Z,1096.00
2023-02-08T07:12:31.691Z,1132.00
2023-02-08T07:13:31.589Z,1168.00
2023-02-08T07:14:31.535Z,1204.00
2023-02-08T07:15:31.476Z,1244.00
2023-02-08T07:16:31.471Z,1284.00
2023-02-08T07:17:31.341Z,1332.00
2023-02-08T07:18:31.308Z,1380.00
2023-02-08T07:19:31.222Z,1420.00
2023-02-08T07:20:31.136Z,1512.00
2023-02-08T07:21:31.078Z,2360.00
2023-02-08T07:22:31.027Z,3620.00
2023-02-08T07:23:30.971Z,5272.00
2023-02-08T07:24:30.879Z,5936.00
2023-02-08T07:25:30.841Z,5516.00
2023-02-08T07:26:30.772Z,6272.00
2023-02-08T07:27:30.708Z,9020.00
2023-02-08T07:28:30.686Z,18144.00
2023-02-08T07:29:30.665Z,33408.00
2023-02-08T07:30:30.646Z,43360.00
2023-02-08T07:31:30.610Z,46528.00
2023-02-08T07:32:30.802Z,49472.00
2023-02-08T07:33:30.364Z,52992.00
2023-02-08T07:34:30.318Z,57280.00
2023-02-08T07:35:30.224Z,60096.00
2023-02-08T07:36:30.200Z,62688.00
2023-02-08T07:37:30.108Z,62720.00
2023-02-08T07:38:30.084Z,61248.00
2023-02-08T07:39:29.979Z,59936.00
2023-02-08T07:40:29.934Z,60448.00
2023-02-08T07:41:29.933Z,61408.00
2023-02-08T07:42:29.800Z,61120.00
2023-02-08T07:43:29.755Z,61920.00
2023-02-08T07:44:29.709Z,65344.00
2023-02-08T07:45:29.679Z,63200.00
2023-02-08T07:46:29.608Z,60800.00
2023-02-08T07:47:29.549Z,65696.00
2023-02-08T07:48:29.522Z,66336.00
2023-02-08T07:49:29.456Z,63648.00
2023-02-08T07:50:29.428Z,67776.00
2023-02-08T07:51:29.369Z,70304.00
2023-02-08T07:52:29.287Z,71904.00
2023-02-08T07:53:29.251Z,71424.00
2023-02-08T07:54:29.229Z,71520.00
2023-02-08T07:55:29.122Z,72064.00
2023-02-08T07:56:29.078Z,72800.00
2023-02-08T07:57:29.032Z,73504.00
2023-02-08T07:58:29.002Z,74912.00
2023-02-08T07:59:28.962Z,77760.00
2023-02-08T08:00:28.896Z,78464.00
2023-02-08T08:01:28.852Z,78656.00
2023-02-08T08:02:28.761Z,78816.00
2023-02-08T08:03:28.754Z,80736.00
2023-02-08T08:04:28.718Z,79808.00
2023-02-08T08:05:28.637Z,78816.00
2023-02-08T08:06:28.592Z,78368.00
2023-02-08T08:07:28.543Z,78336.00
2023-02-08T08:08:28.461Z,78272.00
2023-02-08T08:09:28.489Z,79872.00
2023-02-08T08:10:28.410Z,78880.00
2023-02-08T08:11:28.366Z,80192.00
2023-02-08T08:12:28.320Z,78656.00
2023-02-08T08:13:28.276Z,78944.00
2023-02-08T08:14:28.244Z,81728.00
2023-02-08T08:15:28.151Z,87456.00
2023-02-08T08:16:28.178Z,88992.00
2023-02-08T08:17:29.925Z,87808.00
2023-02-08T08:18:28.049Z,88928.00
2023-02-08T08:19:28.020Z,86176.00
2023-02-08T08:20:27.950Z,89344.00
2023-02-08T08:21:27.916Z,89184.00
2023-02-08T08:22:27.851Z,91232.00
2023-02-08T08:23:27.815Z,92128.00
2023-02-08T08:24:27.787Z,94016.00
2023-02-08T08:25:27.767Z,97440.00
2023-02-08T08:26:27.690Z,96928.00
2023-02-08T08:27:27.633Z,97696.00
2023-02-08T08:28:27.773Z,98752.00
2023-02-08T08:29:27.558Z,97472.00
2023-02-08T08:30:27.546Z,96320.00
2023-02-08T08:31:27.531Z,96448.00
2023-02-08T08:32:27.433Z,94560.00
2023-02-08T08:33:27.379Z,101504.00
2023-02-08T08:34:27.345Z,107552.00
2023-02-08T08:35:27.317Z,115968.00
2023-02-08T08:36:27.226Z,130656.00
2023-02-08T08:37:27.222Z,137568.00
2023-02-08T08:38:27.172Z,123232.00
2023-02-08T08:39:27.122Z,86368.00
2023-02-08T08:40:27.122Z,47072.00
2023-02-08T08:41:27.053Z,25568.00
2023-02-08T08:42:27.039Z,24448.00
2023-02-08T08:43:26.965Z,24512.00
2023-02-08T08:44:26.927Z,24448.00
2023-02-08T08:45:26.874Z,24384.00
2023-02-08T08:46:26.888Z,24448.00
2023-02-08T08:47:26.825Z,24800.00
2023-02-08T08:48:26.724Z,25088.00
2023-02-08T08:49:26.685Z,25312.00
2023-02-08T08:50:26.709Z,25664.00
2023-02-08T08:51:26.638Z,26080.00
2023-02-08T08:52:26.578Z,26400.00
2023-02-08T08:53:26.550Z,26752.00
2023-02-08T08:54:26.519Z,27200.00
2023-02-08T08:55:26.497Z,27776.00
2023-02-08T08:56:26.438Z,28384.00
2023-02-08T08:57:26.360Z,29248.00
2023-02-08T08:58:26.367Z,29984.00
2023-02-08T08:59:26.310Z,30368.00
2023-02-08T09:00:26.269Z,30816.00
2023-02-08T09:01:26.304Z,31456.00
2023-02-08T09:02:26.176Z,32352.00
2023-02-08T09:03:26.193Z,33344.00
2023-02-08T09:04:26.125Z,34272.00
2023-02-08T09:05:26.036Z,34752.00
2023-02-08T09:06:26.028Z,35008.00
2023-02-08T09:07:25.980Z,35776.00
2023-02-08T09:08:25.952Z,36448.00
2023-02-08T09:09:25.918Z,36928.00
2023-02-08T09:10:25.883Z,37632.00
2023-02-08T09:11:25.812Z,38240.00
2023-02-08T09:12:25.774Z,38720.00
2023-02-08T09:13:25.721Z,39456.00
2023-02-08T09:14:25.708Z,40320.00
2023-02-08T09:15:25.612Z,41280.00
2023-02-08T09:16:25.673Z,41856.00
2023-02-08T09:17:25.517Z,42336.00
2023-02-08T09:18:25.527Z,42720.00
2023-02-08T09:19:25.454Z,43008.00
2023-02-08T09:20:25.422Z,43072.00
2023-02-08T09:21:25.413Z,43648.00
2023-02-08T09:22:25.315Z,44352.00
2023-02-08T09:23:25.310Z,44960.00
2023-02-08T09:24:25.249Z,45632.00
2023-02-08T09:25:25.199Z,46144.00
2023-02-08T09:26:25.185Z,46912.00
2023-02-08T09:27:25.128Z,47744.00
2023-02-08T09:28:25.112Z,49152.00
2023-02-08T09:29:25.022Z,51584.00
2023-02-08T09:30:24.987Z,54752.00
2023-02-08T09:31:25.106Z,56352.00
2023-02-08T09:32:24.875Z,57216.00
2023-02-08T09:33:24.882Z,58240.00
2023-02-08T09:34:24.813Z,55680.00
2023-02-08T09:35:24.778Z,52320.00
2023-02-08T09:36:24.735Z,51488.00
2023-02-08T09:37:24.665Z,52352.00
2023-02-08T09:38:24.667Z,52064.00
2023-02-08T09:39:24.599Z,50368.00
2023-02-08T09:40:24.558Z,49184.00
2023-02-08T09:41:24.532Z,47776.00
2023-02-08T09:42:24.506Z,46816.00
2023-02-08T09:43:24.435Z,45824.00
2023-02-08T09:44:24.376Z,44672.00
2023-02-08T09:45:24.332Z,43264.00
2023-02-08T09:46:24.386Z,42144.00
2023-02-08T09:47:24.267Z,41152.00
2023-02-08T09:48:24.228Z,40704.00
2023-02-08T09:49:24.171Z,40448.00
2023-02-08T09:50:24.133Z,39904.00
2023-02-08T09:51:24.100Z,38752.00
2023-02-08T09:52:24.044Z,37696.00
2023-02-08T09:53:24.061Z,36672.00
2023-02-08T09:54:23.957Z,35616.00
2023-02-08T09:55:23.905Z,34688.00
2023-02-08T09:56:23.922Z,34304.00
2023-02-08T09:57:23.840Z,33920.00
2023-02-08T09:58:23.801Z,33248.00
2023-02-08T09:59:23.734Z,31424.00
2023-02-08T10:00:23.701Z,28320.00
2023-02-08T10:01:23.658Z,24896.00
2023-02-08T10:02:23.599Z,19616.00
2023-02-08T10:03:23.599Z,12976.00
2023-02-08T10:04:23.529Z,9420.00
2023-02-08T10:05:23.488Z,8408.00
2023-02-08T10:06:23.451Z,8004.00
2023-02-08T10:07:23.369Z,7780.00
2023-02-08T10:08:31.525Z,7648.00
2023-02-08T10:09:23.311Z,7544.00
2023-02-08T10:10:23.297Z,7488.00
2023-02-08T10:11:23.242Z,7428.00
2023-02-08T10:12:23.166Z,7376.00
2023-02-08T10:13:33.067Z,7304.00
2023-02-08T10:14:23.082Z,7288.00
2023-02-08T10:15:23.073Z,7236.00
2023-02-08T10:16:23.028Z,7192.00
2023-02-08T10:17:22.969Z,7148.00
2023-02-08T10:18:22.982Z,7092.00
2023-02-08T10:19:22.873Z,7072.00
2023-02-08T10:20:22.837Z,7008.00
2023-02-08T10:21:22.811Z,6988.00
2023-02-08T10:22:22.733Z,6940.00
2023-02-08T10:23:22.749Z,6896.00
2023-02-08T10:24:22.648Z,6852.00
2023-02-08T10:25:22.609Z,6792.00
2023-02-08T10:26:22.556Z,6776.00
2023-02-08T10:27:22.546Z,6744.00
2023-02-08T10:28:22.587Z,6700.00
2023-02-08T10:29:22.465Z,6684.00
2023-02-08T10:30:22.418Z,6648.00
2023-02-08T10:31:22.502Z,6632.00
2023-02-08T10:32:22.264Z,6612.00
2023-02-08T10:33:22.266Z,6588.00
2023-02-08T10:34:22.186Z,6540.00
2023-02-08T10:35:22.150Z,6508.00
2023-02-08T10:36:22.090Z,6456.00
2023-02-08T10:37:22.031Z,6440.00
2023-02-08T10:38:22.011Z,6452.00
2023-02-08T10:39:21.939Z,6424.00
2023-02-08T10:40:21.879Z,6368.00
2023-02-08T10:41:21.887Z,6352.00
2023-02-08T10:42:21.811Z,6324.00
2023-02-08T10:43:21.760Z,6296.00
2023-02-08T10:44:21.704Z,6284.00
2023-02-08T10:45:24.514Z,6256.00
2023-02-08T10:46:21.613Z,6236.00
2023-02-08T10:47:21.567Z,6224.00
2023-02-08T10:48:21.493Z,6208.00
2023-02-08T10:49:21.464Z,6192.00
2023-02-08T10:50:21.449Z,6164.00
2023-02-08T10:51:21.400Z,6144.00
2023-02-08T10:52:21.303Z,6104.00
2023-02-08T10:53:21.248Z,6096.00
2023-02-08T10:54:21.192Z,6060.00
2023-02-08T10:55:21.154Z,6044.00
2023-02-08T10:56:21.128Z,6008.00
2023-02-08T10:57:21.075Z,6008.00
2023-02-08T10:58:21.027Z,5996.00
2023-02-08T10:59:20.953Z,5948.00
2023-02-08T11:00:20.884Z,5936.00
2023-02-08T11:01:20.905Z,5916.00
2023-02-08T11:02:20.834Z,5872.00
2023-02-08T11:03:20.719Z,5816.00
2023-02-08T11:04:20.771Z,5788.00
2023-02-08T11:05:20.660Z,5768.00
2023-02-08T11:06:20.604Z,5724.00
2023-02-08T11:07:20.536Z,5688.00
2023-02-08T11:08:20.532Z,5668.00
2023-02-08T11:09:20.435Z,5656.00
2023-02-08T11:10:20.437Z,5612.00
2023-02-08T11:11:20.361Z,5588.00
2023-02-08T11:12:20.263Z,5556.00
2023-02-08T11:13:20.263Z,5520.00
2023-02-08T11:14:20.193Z,5484.00
2023-02-08T11:15:20.132Z,5456.00
2023-02-08T11:16:20.127Z,5428.00
2023-02-08T11:17:20.034Z,5404.00
2023-02-08T11:18:20.007Z,5376.00
2023-02-08T11:19:19.925Z,5364.00
2023-02-08T11:20:19.878Z,5340.00
2023-02-08T11:21:19.852Z,5296.00
2023-02-08T11:22:19.765Z,5288.00
2023-02-08T11:23:19.712Z,5260.00
2023-02-08T11:24:19.649Z,5236.00
2023-02-08T11:25:19.643Z,5204.00
2023-02-08T11:26:19.593Z,5184.00
2023-02-08T11:27:19.528Z,5152.00
2023-02-08T11:28:19.516Z,5136.00
2023-02-08T11:29:19.401Z,5112.00
2023-02-08T11:30:19.350Z,5076.00
2023-02-08T11:31:19.348Z,5068.00
2023-02-08T11:32:19.239Z,5032.00
2023-02-08T11:33:19.151Z,5028.00
2023-02-08T11:34:19.140Z,4996.00
2023-02-08T11:35:19.077Z,4980.00
2023-02-08T11:36:19.040Z,4972.00
2023-02-08T11:37:18.966Z,4968.00
2023-02-08T11:38:18.931Z,4960.00
2023-02-08T11:39:18.867Z,4932.00
2023-02-08T11:40:18.807Z,4928.00
2023-02-08T11:41:18.771Z,4900.00
2023-02-08T11:42:18.710Z,4880.00
2023-02-08T11:43:18.646Z,4868.00
2023-02-08T11:44:18.592Z,4856.00
2023-02-08T11:45:18.542Z,4856.00
2023-02-08T11:46:18.480Z,4836.00
2023-02-08T11:47:20.536Z,4820.00
2023-02-08T11:48:18.397Z,4808.00
2023-02-08T11:49:18.340Z,4792.00
2023-02-08T11:50:18.292Z,4772.00
2023-02-08T11:51:18.236Z,4756.00
2023-02-08T11:52:18.156Z,4732.00
2023-02-08T11:53:18.097Z,4708.00
2023-02-08T11:54:18.077Z,4688.00
2023-02-08T11:55:18.003Z,4680.00
2023-02-08T11:56:17.992Z,4660.00
2023-02-08T11:57:17.898Z,4640.00
2023-02-08T11:58:17.844Z,4616.00
2023-02-08T11:59:17.809Z,4612.00
2023-02-08T12:00:17.701Z,4592.00
2023-02-08T12:01:17.678Z,4576.00
2023-02-08T12:02:17.699Z,4556.00
2023-02-08T12:03:17.575Z,4536.00
2023-02-08T12:04:17.515Z,4524.00
2023-02-08T12:05:17.504Z,4416.00
2023-02-08T12:06:17.414Z,4496.00
2023-02-08T12:07:17.359Z,4484.00
2023-02-08T12:08:17.330Z,4468.00
2023-02-08T12:09:17.225Z,4456.00
2023-02-08T12:10:17.193Z,4448.00
2023-02-08T12:11:17.150Z,4444.00
2023-02-08T12:12:17.129Z,4412.00
2023-02-08T12:13:17.054Z,4416.00
2023-02-08T12:14:16.992Z,4384.00
2023-02-08T12:15:16.954Z,4376.00
2023-02-08T12:16:16.907Z,4356.00
2023-02-08T12:17:16.824Z,4352.00
2023-02-08T12:18:16.750Z,4352.00
2023-02-08T12:19:16.716Z,4332.00
2023-02-08T12:20:16.666Z,4316.00
2023-02-08T12:21:16.616Z,4308.00
2023-02-08T12:22:16.561Z,4284.00
2023-02-08T12:23:16.506Z,4268.00
2023-02-08T12:24:16.477Z,4244.00
2023-02-08T12:25:16.387Z,4228.00
2023-02-08T12:26:16.348Z,4220.00
2023-02-08T12:27:17.289Z,4200.00
2023-02-08T12:28:16.274Z,4180.00
2023-02-08T12:29:16.205Z,4164.00
2023-02-08T12:30:16.089Z,4144.00
2023-02-08T12:31:16.243Z,4120.00
2023-02-08T12:32:16.022Z,4096.00
2023-02-08T12:33:17.192Z,4088.00
2023-02-08T12:34:15.940Z,4064.00
2023-02-08T12:35:18.733Z,4032.00
2023-02-08T12:36:15.850Z,4008.00
2023-02-08T12:37:15.753Z,3980.00